Aviation weather information 2021-04-23 06:31 UTC

TAF(FCEO32)
FCEO32 EETN 230300
TAF EEKA 230300Z 2304/2310 34015G25KT 9999 BKN010 BKN020 TEMPO
     2304/2310 3000 SHRASN BKN004 BKN015CB TEMPO 2305/2310
     34020G30KT=
FCEO32 EETN 230300
TAF EEKE 230300Z 2304/2310 31012G25KT 9999 BKN008 BKN015 TEMPO
     2304/2310 3000 SHRASN BKN004 BKN015CB TEMPO 2305/2310
     32020G32KT=

TAF(FTEO31)
FTEO31 EETN 230500
TAF EETN 230515Z 2306/2406 18006KT 9999 SCT008 BKN025 TEMPO
     2306/2317 3000 SHRASN BKN004 BKN015CB BECMG 2308/2310 29012KT
     TEMPO 2319/2406 5000 SHSNRA BKN006 SCT020CB=

TAF(FTEO33)
FTEO33 EEEI 230500
TAF EEEI 230500Z 2306/2406 15005KT 9999 OVC015 TEMPO 2307/2310
     VRB03KT TEMPO 2309/2314 4000 SHRA BKN005 SCT020TCU BECMG
     2310/2312 29012G25KT BECMG 2314/2316 FEW010 BKN030 TEMPO
     2317/2320 SCT050= 

Weather observation (METAR/SPECI)
METAR EETN 230620Z 14004KT 110V180 9999 FEW009 BKN013 OVC020 04/02
Q1002 NOSIG=
METAR EEEI 230550Z 15003KT 120V200 9999 FEW006 BKN023 03/02 Q1002
NOSIG=
METAR EETU 230620Z 18013KT 9999 VCSH BKN014 FEW019CB OVC023 04/01
Q1003=
METAR EEPU 230620Z NIL=
METAR EEKE 230620Z 31009KT 260V340 9999 -RA SCT010 BKN017 OVC020
03/02 Q1003=
METAR EEKA 230620Z 32015KT 7000 -DZ OVC005 03/03 Q1002=